createdAt,value
2022-10-17T17:50:17.617Z,101142.91
2022-10-17T17:52:46.450Z,101142.81
2022-10-17T17:55:13.220Z,101156.56
2022-10-17T17:57:39.894Z,101158.09
2022-10-17T18:00:07.301Z,101161.91
2022-10-17T18:02:36.419Z,101172.81
2022-10-17T18:05:05.613Z,101180.06
2022-10-17T18:07:32.297Z,101182.41
2022-10-17T18:09:59.042Z,101188.63
2022-10-17T18:12:25.706Z,101195.59
2022-10-17T18:14:52.448Z,101194.66
2022-10-17T18:17:19.157Z,101193.38
2022-10-17T18:19:45.841Z,101208.31
2022-10-17T18:22:12.446Z,101204.25
2022-10-17T18:24:39.158Z,101209.22
2022-10-17T18:27:05.945Z,101215.47
2022-10-17T18:29:32.903Z,101218.47
2022-10-17T18:32:00.008Z,101215.69
2022-10-17T18:34:27.356Z,101233.47
2022-10-17T18:36:54.820Z,101238.94
2022-10-17T18:39:21.640Z,101246.75
2022-10-17T18:41:48.374Z,101239.13
2022-10-17T18:44:16.894Z,101248.94
2022-10-17T18:49:15.730Z,101247.56
2022-10-17T18:51:42.675Z,101255.75
2022-10-17T18:54:16.785Z,101258.88
2022-10-17T18:56:45.034Z,101254.47
2022-10-17T18:59:11.695Z,101267.41
2022-10-17T19:01:38.714Z,101260.91
2022-10-17T19:04:05.383Z,101281.00
2022-10-17T19:06:32.752Z,101278.09
2022-10-17T19:09:00.743Z,101291.81
2022-10-17T19:11:29.116Z,101290.16
2022-10-17T19:14:01.320Z,101296.75
2022-10-17T19:16:36.824Z,101302.28
2022-10-17T19:19:11.629Z,101304.59
2022-10-17T19:21:38.412Z,101314.41
2022-10-17T19:24:07.799Z,101313.13
2022-10-17T19:26:36.766Z,101312.97
2022-10-17T19:29:04.820Z,101307.28
2022-10-17T19:31:32.930Z,101312.72
2022-10-17T19:34:00.264Z,101315.69
2022-10-17T19:36:32.442Z,101327.44
2022-10-17T19:39:05.715Z,101330.88
2022-10-17T19:41:33.196Z,101343.91
2022-10-17T19:44:00.601Z,101351.31
2022-10-17T19:46:28.729Z,101348.38
2022-10-17T19:48:55.979Z,101347.91
2022-10-17T19:51:24.631Z,101350.53
2022-10-17T19:53:52.875Z,101354.44
2022-10-17T19:56:21.205Z,101361.47
2022-10-17T19:58:49.330Z,101369.28
2022-10-17T20:01:20.753Z,101375.38
2022-10-17T20:03:47.743Z,101381.41
2022-10-17T20:06:15.167Z,101394.31
2022-10-17T20:08:42.177Z,101409.78
2022-10-17T20:11:13.175Z,101410.59
2022-10-17T20:13:41.023Z,101419.25
2022-10-17T20:16:11.744Z,101427.06
2022-10-17T20:18:40.612Z,101426.78
2022-10-17T20:21:11.860Z,101433.63
2022-10-17T20:23:39.822Z,101436.56
2022-10-17T20:26:26.093Z,101434.81
2022-10-17T20:28:58.068Z,101434.97
2022-10-17T20:31:24.858Z,101435.28
2022-10-17T20:33:59.427Z,101450.28
2022-10-17T20:36:27.114Z,101455.66
2022-10-17T20:38:55.580Z,101462.69
2022-10-17T20:41:23.614Z,101455.38
2022-10-17T20:43:51.894Z,101470.16
2022-10-17T20:46:36.369Z,101462.19
2022-10-17T20:49:08.184Z,101469.84
2022-10-17T20:51:36.126Z,101483.69
2022-10-17T20:54:03.378Z,101487.44
2022-10-17T20:56:32.072Z,101488.28
2022-10-17T20:59:05.600Z,101505.84
2022-10-17T21:01:33.838Z,101521.47
2022-10-17T21:04:21.223Z,101516.25
2022-10-17T21:06:48.416Z,101510.06
2022-10-17T21:09:15.150Z,101513.50
2022-10-17T21:11:43.193Z,101519.97
2022-10-17T21:14:11.144Z,101533.31
2022-10-17T21:16:39.697Z,101537.19
2022-10-17T21:19:06.524Z,101540.63
2022-10-17T21:21:35.898Z,101542.38
2022-10-17T21:24:06.043Z,101530.34
2022-10-17T21:26:34.729Z,101531.63
2022-10-17T21:29:06.070Z,101536.69
2022-10-17T21:31:34.971Z,101542.50
2022-10-17T21:34:09.987Z,101558.28
2022-10-17T21:36:36.998Z,101552.13
2022-10-17T21:39:04.634Z,101549.06
2022-10-17T21:41:31.798Z,101561.72
2022-10-17T21:44:06.642Z,101569.06
2022-10-17T21:46:34.245Z,101578.16
2022-10-17T21:49:01.010Z,101579.63
2022-10-17T21:51:28.287Z,101584.97
2022-10-17T21:53:56.782Z,101583.47
2022-10-17T21:56:28.225Z,101585.75
2022-10-17T21:58:55.615Z,101588.34
2022-10-17T22:01:25.234Z,101589.97
2022-10-17T22:03:54.235Z,101581.81
2022-10-17T22:06:40.660Z,101590.25
2022-10-17T22:09:12.525Z,101597.88
2022-10-17T22:11:39.337Z,101594.63
2022-10-17T22:14:14.535Z,101598.50
2022-10-17T22:16:41.857Z,101608.75
2022-10-17T22:19:11.975Z,101622.69
2022-10-17T22:21:39.090Z,101618.13
2022-10-17T22:24:09.094Z,101610.13
2022-10-17T22:26:37.573Z,101623.16
2022-10-17T22:29:05.848Z,101619.59
2022-10-17T22:31:32.928Z,101627.69
2022-10-17T22:34:00.799Z,101618.56
2022-10-17T22:36:27.714Z,101615.13
2022-10-17T22:38:54.351Z,101625.81
2022-10-17T22:41:21.033Z,101627.44
2022-10-17T22:43:51.166Z,101634.09
2022-10-17T22:46:17.992Z,101629.19
2022-10-17T22:48:44.833Z,101634.72
2022-10-17T22:51:11.889Z,101630.97
2022-10-17T22:53:38.686Z,101629.31
2022-10-17T22:56:11.526Z,101636.00
2022-10-17T22:58:40.124Z,101629.47
2022-10-17T23:01:08.884Z,101627.31
2022-10-17T23:03:36.053Z,101637.69
2022-10-17T23:06:03.218Z,101643.16
2022-10-17T23:08:30.485Z,101636.94
2022-10-17T23:10:57.734Z,101642.13
2022-10-17T23:13:24.488Z,101638.88
2022-10-17T23:15:55.448Z,101629.28
2022-10-17T23:18:23.458Z,101635.09
2022-10-17T23:20:50.367Z,101640.59
2022-10-17T23:23:17.747Z,101622.44
2022-10-17T23:25:44.447Z,101633.47
2022-10-17T23:28:11.669Z,101639.00
2022-10-17T23:30:39.227Z,101634.47
2022-10-17T23:33:06.514Z,101640.47
2022-10-17T23:35:33.866Z,101644.69
2022-10-17T23:38:00.533Z,101648.59
2022-10-17T23:40:28.130Z,101639.63
2022-10-17T23:42:54.821Z,101650.94
2022-10-17T23:45:21.949Z,101656.09
2022-10-17T23:47:48.667Z,101649.25
2022-10-17T23:50:16.419Z,101648.75
2022-10-17T23:52:43.158Z,101648.25
2022-10-17T23:55:10.466Z,101655.50
2022-10-17T23:57:37.170Z,101662.13
